createdAt,value
2023-04-16T00:01:26.480Z,19.73
2023-04-16T00:03:55.910Z,20.70
2023-04-16T00:06:24.558Z,20.23
2023-04-16T00:08:54.276Z,21.52
2023-04-16T00:11:23.639Z,22.45
2023-04-16T00:13:52.012Z,21.75
2023-04-16T00:16:20.625Z,21.65
2023-04-16T00:18:48.944Z,21.30
2023-04-16T00:21:17.267Z,21.75
2023-04-16T00:23:45.912Z,21.33
2023-04-16T00:26:16.095Z,22.02
2023-04-16T00:28:44.406Z,22.23
2023-04-16T00:31:12.800Z,22.20
2023-04-16T00:33:41.241Z,21.83
2023-04-16T00:36:10.687Z,23.15
2023-04-16T00:38:39.033Z,23.27
2023-04-16T00:41:07.374Z,23.40
2023-04-16T00:43:37.091Z,24.30
2023-04-16T00:46:07.753Z,24.77
2023-04-16T00:48:37.520Z,22.40
2023-04-16T00:51:06.722Z,23.25
2023-04-16T00:53:35.798Z,22.90
2023-04-16T00:56:05.215Z,22.05
2023-04-16T00:58:35.017Z,22.67
2023-04-16T01:01:04.916Z,23.63
2023-04-16T01:03:39.632Z,22.38
2023-04-16T01:06:08.616Z,23.60
2023-04-16T01:08:37.039Z,22.83
2023-04-16T01:11:05.642Z,23.10
2023-04-16T01:13:34.522Z,22.17
2023-04-16T01:16:04.563Z,22.75
2023-04-16T01:18:32.942Z,22.80
2023-04-16T01:21:02.876Z,21.67
2023-04-16T01:23:31.470Z,23.70
2023-04-16T01:25:59.976Z,21.90
2023-04-16T01:28:28.388Z,22.20
2023-04-16T01:30:56.787Z,22.67
2023-04-16T01:33:25.230Z,21.13
2023-04-16T01:35:53.610Z,21.80
2023-04-16T01:38:23.427Z,22.58
2023-04-16T01:40:51.794Z,23.70
2023-04-16T01:43:20.281Z,23.50
2023-04-16T01:45:48.614Z,22.60
2023-04-16T01:48:17.110Z,22.08
2023-04-16T01:50:45.554Z,22.00
2023-04-16T01:53:13.857Z,22.08
2023-04-16T01:55:43.569Z,23.52
2023-04-16T01:58:14.719Z,21.98
2023-04-16T02:00:43.073Z,22.52
2023-04-16T02:03:11.811Z,22.08
2023-04-16T02:05:40.275Z,22.25
2023-04-16T02:08:08.615Z,22.48
2023-04-16T02:10:37.008Z,21.42
2023-04-16T02:13:06.731Z,21.10
2023-04-16T02:15:35.235Z,22.48
2023-04-16T02:18:03.606Z,21.15
2023-04-16T02:20:31.946Z,21.52
2023-04-16T02:23:00.490Z,21.50
2023-04-16T02:25:28.989Z,21.35
2023-04-16T02:27:57.327Z,22.23
2023-04-16T02:30:27.167Z,20.73
2023-04-16T02:32:55.517Z,20.35
2023-04-16T02:35:23.901Z,20.92
2023-04-16T02:37:52.269Z,19.92
2023-04-16T02:40:21.021Z,21.88
2023-04-16T02:42:49.369Z,21.50
2023-04-16T02:45:17.802Z,21.80
2023-04-16T02:47:47.520Z,21.75
2023-04-16T02:50:16.037Z,22.77
2023-04-16T02:52:44.450Z,22.35
2023-04-16T02:55:13.307Z,21.17
2023-04-16T02:57:42.452Z,22.98
2023-04-16T03:00:11.742Z,22.27
2023-04-16T03:02:40.741Z,22.23
2023-04-16T03:05:11.776Z,23.38
2023-04-16T03:07:40.837Z,22.75
2023-04-16T03:10:10.059Z,24.73
2023-04-16T03:12:39.175Z,24.55
2023-04-16T03:15:08.427Z,24.58
2023-04-16T03:17:37.002Z,25.60
2023-04-16T03:20:06.525Z,26.23
2023-04-16T03:22:36.485Z,25.85
2023-04-16T03:25:05.284Z,25.98
2023-04-16T03:27:33.951Z,26.05
2023-04-16T03:30:02.563Z,26.73
2023-04-16T03:32:30.926Z,26.33
2023-04-16T03:34:59.314Z,26.73
2023-04-16T03:37:27.676Z,25.50
2023-04-16T03:39:57.397Z,25.50
2023-04-16T03:42:25.932Z,26.05
2023-04-16T03:44:54.626Z,25.55
2023-04-16T03:47:23.090Z,29.75
2023-04-16T03:49:51.822Z,25.15
2023-04-16T03:52:20.169Z,24.45
2023-04-16T03:54:48.505Z,24.73
2023-04-16T03:57:18.254Z,24.70
2023-04-16T03:59:47.039Z,25.50
2023-04-16T04:02:15.477Z,24.95
2023-04-16T04:04:44.062Z,24.55
2023-04-16T04:07:12.496Z,24.17
2023-04-16T04:09:40.855Z,23.98
2023-04-16T04:12:09.986Z,23.90
2023-04-16T04:14:40.104Z,25.80
2023-04-16T04:17:09.396Z,24.80
2023-04-16T04:19:40.280Z,25.17
2023-04-16T04:22:10.946Z,26.08
2023-04-16T04:24:39.287Z,23.77
2023-04-16T04:27:07.601Z,24.15
2023-04-16T04:29:36.016Z,24.92
2023-04-16T04:32:06.290Z,24.60
2023-04-16T04:34:34.636Z,25.60
2023-04-16T04:37:02.994Z,23.27
2023-04-16T04:39:31.759Z,24.80
2023-04-16T04:42:00.191Z,25.25
2023-04-16T04:44:28.509Z,24.75
2023-04-16T04:46:56.815Z,24.55
2023-04-16T04:49:26.569Z,24.02
2023-04-16T04:51:54.903Z,25.25
2023-04-16T04:54:23.293Z,23.92
2023-04-16T04:56:52.539Z,24.98
2023-04-16T04:59:21.611Z,25.23
2023-04-16T05:01:50.386Z,25.63
2023-04-16T05:04:19.321Z,26.55
2023-04-16T05:06:49.334Z,23.98
2023-04-16T05:09:17.742Z,24.85
2023-04-16T05:11:46.254Z,24.50
2023-04-16T05:14:14.686Z,25.02
2023-04-16T05:16:43.082Z,25.27
2023-04-16T05:19:11.620Z,25.17
2023-04-16T05:21:40.277Z,24.52
2023-04-16T05:24:10.013Z,24.77
2023-04-16T05:26:38.371Z,24.75
2023-04-16T05:29:06.774Z,24.77
2023-04-16T05:31:35.311Z,23.90
2023-04-16T05:34:03.622Z,23.88
2023-04-16T05:36:31.952Z,24.45
2023-04-16T05:39:00.308Z,25.10
2023-04-16T05:41:30.028Z,24.25
2023-04-16T05:43:58.425Z,22.98
2023-04-16T05:46:26.903Z,23.23
2023-04-16T05:48:55.697Z,22.95
2023-04-16T05:51:26.061Z,22.30
2023-04-16T05:53:54.394Z,21.38
2023-04-16T05:56:23.392Z,21.95
2023-04-16T05:58:53.086Z,22.33
2023-04-16T06:01:22.270Z,22.48
2023-04-16T06:03:50.991Z,22.05
2023-04-16T06:06:19.406Z,22.77
2023-04-16T06:08:47.824Z,22.05
2023-04-16T06:11:16.243Z,21.45
2023-04-16T06:13:44.610Z,21.77
2023-04-16T06:16:14.563Z,21.92
2023-04-16T06:18:42.906Z,22.30
2023-04-16T06:21:11.353Z,21.42
2023-04-16T06:23:39.852Z,21.33
2023-04-16T06:26:08.196Z,21.48
2023-04-16T06:28:36.525Z,21.85
2023-04-16T06:31:05.722Z,20.88
2023-04-16T06:33:35.493Z,21.52
2023-04-16T06:36:03.832Z,21.42
2023-04-16T06:38:32.165Z,20.98
2023-04-16T06:41:00.707Z,22.55
2023-04-16T06:43:29.868Z,20.67
2023-04-16T06:45:58.206Z,21.27
2023-04-16T06:48:26.602Z,23.08
2023-04-16T06:50:56.690Z,21.63
2023-04-16T06:53:25.328Z,22.73
2023-04-16T06:55:53.700Z,21.95
2023-04-16T06:58:22.370Z,22.00
2023-04-16T07:00:50.901Z,21.58
2023-04-16T07:03:19.572Z,21.55
2023-04-16T07:05:48.079Z,22.25
2023-04-16T07:08:17.900Z,22.08
2023-04-16T07:10:46.222Z,21.58
2023-04-16T07:13:14.986Z,21.17
2023-04-16T07:15:43.422Z,22.85
2023-04-16T07:18:11.817Z,20.40
2023-04-16T07:20:40.212Z,20.55
2023-04-16T07:23:08.677Z,20.20
2023-04-16T07:25:38.568Z,21.13
2023-04-16T07:28:06.961Z,21.02
2023-04-16T07:30:35.837Z,19.50
2023-04-16T07:33:04.808Z,21.27
2023-04-16T07:35:33.592Z,20.48
2023-04-16T07:38:02.031Z,21.05
2023-04-16T07:40:30.755Z,20.30
2023-04-16T07:43:00.553Z,20.73
2023-04-16T07:45:28.923Z,21.05
2023-04-16T07:47:57.668Z,20.88
2023-04-16T07:50:26.235Z,20.48
2023-04-16T07:52:54.704Z,20.52
2023-04-16T07:55:23.335Z,21.20
2023-04-16T07:57:52.276Z,20.38
2023-04-16T08:00:22.196Z,20.83
2023-04-16T08:02:51.221Z,21.05
2023-04-16T08:05:19.723Z,18.63
2023-04-16T08:07:48.180Z,20.10
2023-04-16T08:10:16.746Z,19.63
2023-04-16T08:12:45.195Z,20.08
2023-04-16T08:15:13.673Z,19.52
2023-04-16T08:17:43.426Z,19.42
2023-04-16T08:20:15.758Z,20.90
2023-04-16T08:22:46.232Z,19.13
2023-04-16T08:25:15.002Z,20.17
2023-04-16T08:27:43.338Z,20.10
2023-04-16T08:30:12.372Z,20.70
2023-04-16T08:32:40.881Z,19.05
2023-04-16T08:35:11.115Z,19.33
2023-04-16T08:37:39.773Z,18.40
2023-04-16T08:40:09.596Z,18.70
2023-04-16T08:42:45.665Z,18.85
2023-04-16T08:45:16.067Z,18.17
2023-04-16T08:47:47.932Z,19.35
2023-04-16T08:50:23.442Z,18.80
2023-04-16T08:52:53.933Z,19.58
2023-04-16T08:55:27.329Z,18.60
2023-04-16T08:57:59.652Z,18.65
2023-04-16T09:00:29.526Z,23.08
2023-04-16T09:02:58.131Z,20.45
2023-04-16T09:05:30.348Z,19.17
2023-04-16T09:07:58.744Z,19.02
2023-04-16T09:10:28.166Z,20.27
2023-04-16T09:12:57.333Z,22.48
2023-04-16T09:15:26.584Z,20.95
2023-04-16T09:17:56.546Z,20.70
2023-04-16T09:20:25.327Z,19.52
2023-04-16T09:22:57.004Z,19.60
2023-04-16T09:25:26.320Z,20.67
2023-04-16T09:27:54.706Z,18.15
2023-04-16T09:30:24.888Z,18.52
2023-04-16T09:33:02.151Z,19.98
2023-04-16T09:35:46.743Z,19.17
2023-04-16T09:38:17.119Z,19.52
2023-04-16T09:40:47.683Z,18.30
2023-04-16T09:43:17.983Z,19.17
2023-04-16T09:45:51.050Z,18.17
2023-04-16T09:48:29.997Z,17.83
2023-04-16T09:50:59.294Z,18.77
2023-04-16T09:53:30.307Z,17.92
2023-04-16T09:55:59.232Z,19.73
2023-04-16T09:58:28.591Z,17.35
2023-04-16T10:00:57.660Z,18.58
2023-04-16T10:03:32.961Z,18.42
2023-04-16T10:06:03.055Z,18.20
2023-04-16T10:08:32.816Z,18.45
2023-04-16T10:11:01.742Z,18.63
2023-04-16T10:13:31.244Z,18.48
2023-04-16T10:16:00.154Z,18.65
2023-04-16T10:18:29.991Z,19.10
2023-04-16T10:20:59.873Z,19.48
2023-04-16T10:23:28.611Z,22.27
2023-04-16T10:25:59.833Z,23.25
2023-04-16T10:28:29.456Z,20.95
2023-04-16T10:30:59.341Z,21.85
2023-04-16T10:33:30.421Z,21.65
2023-04-16T10:36:12.976Z,20.60
2023-04-16T10:38:42.837Z,25.95
2023-04-16T10:41:12.691Z,20.33
2023-04-16T10:43:42.432Z,20.92
2023-04-16T10:46:22.112Z,23.13
2023-04-16T10:48:51.712Z,21.77
2023-04-16T10:51:28.854Z,23.08
2023-04-16T10:53:58.290Z,24.52
2023-04-16T10:56:29.092Z,21.67
2023-04-16T10:58:57.479Z,22.98
2023-04-16T11:01:36.535Z,22.55
2023-04-16T11:04:30.606Z,21.90
2023-04-16T11:07:05.520Z,21.35
2023-04-16T11:09:54.729Z,22.40
2023-04-16T11:12:27.263Z,21.13
2023-04-16T11:14:59.158Z,24.95
2023-04-16T11:17:30.777Z,20.83
2023-04-16T11:19:59.322Z,20.42
2023-04-16T11:22:28.381Z,20.30
2023-04-16T11:24:57.571Z,21.88
2023-04-16T11:27:27.457Z,20.35
2023-04-16T11:30:00.293Z,20.13
2023-04-16T11:32:28.797Z,19.90
2023-04-16T11:34:57.166Z,19.60
2023-04-16T11:37:34.288Z,19.15
2023-04-16T11:40:04.828Z,19.27
2023-04-16T11:42:37.227Z,19.67
2023-04-16T11:45:06.373Z,19.33
2023-04-16T11:47:46.866Z,18.60
2023-04-16T11:50:20.128Z,19.45
2023-04-16T11:52:49.263Z,19.73
2023-04-16T11:55:18.178Z,18.60
2023-04-16T11:57:48.549Z,19.23
2023-04-16T12:00:17.498Z,18.30
2023-04-16T12:02:47.402Z,18.25
2023-04-16T12:05:30.771Z,17.83
2023-04-16T12:08:00.993Z,18.63
2023-04-16T12:10:30.308Z,18.70
2023-04-16T12:13:13.631Z,18.35
2023-04-16T12:15:46.780Z,18.63
2023-04-16T12:18:16.272Z,18.63
2023-04-16T12:20:45.587Z,18.38
2023-04-16T12:23:24.691Z,18.65
2023-04-16T12:25:53.374Z,18.40
2023-04-16T12:28:31.926Z,18.52
2023-04-16T12:31:01.091Z,18.13
2023-04-16T12:33:30.236Z,18.05
2023-04-16T12:35:58.717Z,19.80
2023-04-16T12:38:27.640Z,18.02
2023-04-16T12:40:57.839Z,16.67
2023-04-16T12:43:26.569Z,16.77
2023-04-16T12:45:56.582Z,16.45
2023-04-16T12:48:25.023Z,16.73
2023-04-16T12:50:55.301Z,15.13
2023-04-16T12:53:23.962Z,15.00
2023-04-16T12:55:52.659Z,15.93
2023-04-16T12:58:21.026Z,14.57
2023-04-16T13:00:49.502Z,13.30
2023-04-16T13:03:20.982Z,13.68
2023-04-16T13:05:49.770Z,14.50
2023-04-16T13:08:18.274Z,14.65
2023-04-16T13:10:46.677Z,13.65
2023-04-16T13:13:16.445Z,13.38
2023-04-16T13:15:44.922Z,13.55
2023-04-16T13:18:13.517Z,13.43
2023-04-16T13:20:43.809Z,12.70
2023-04-16T13:23:12.410Z,11.85
2023-04-16T13:25:40.912Z,13.90
2023-04-16T13:28:09.366Z,13.57
2023-04-16T13:30:38.121Z,12.68
2023-04-16T13:33:06.623Z,12.98
2023-04-16T13:35:35.135Z,13.25
2023-04-16T13:38:05.975Z,13.25
2023-04-16T13:40:34.683Z,12.80
2023-04-16T13:43:03.537Z,12.88
2023-04-16T13:45:32.577Z,14.05
2023-04-16T13:48:01.372Z,14.10
2023-04-16T13:50:29.984Z,13.75
2023-04-16T13:52:58.377Z,12.95
2023-04-16T13:55:28.137Z,12.45
2023-04-16T13:57:57.056Z,11.90
2023-04-16T14:00:27.250Z,11.50
2023-04-16T14:02:55.894Z,11.90
2023-04-16T14:05:26.608Z,17.20
2023-04-16T14:07:55.659Z,12.15
2023-04-16T14:10:24.034Z,11.82
2023-04-16T14:12:53.807Z,12.68
2023-04-16T14:15:22.201Z,11.75
2023-04-16T14:17:50.876Z,12.60
2023-04-16T14:20:19.264Z,11.52
2023-04-16T14:22:47.735Z,11.25
2023-04-16T14:25:16.165Z,11.90
2023-04-16T14:27:44.547Z,11.27
2023-04-16T14:30:14.752Z,11.00
2023-04-16T14:32:43.329Z,10.95
2023-04-16T14:35:11.802Z,11.65
2023-04-16T14:37:40.816Z,11.13
2023-04-16T14:40:10.866Z,11.32
2023-04-16T14:42:41.965Z,11.35
2023-04-16T14:45:11.033Z,11.27
2023-04-16T14:47:46.217Z,15.27
2023-04-16T14:50:20.991Z,12.93
2023-04-16T14:52:53.786Z,12.20
2023-04-16T14:55:27.717Z,12.32
2023-04-16T14:57:59.740Z,12.23
2023-04-16T15:00:28.616Z,13.25
2023-04-16T15:02:59.463Z,11.82
2023-04-16T15:05:27.905Z,11.43
2023-04-16T15:07:56.291Z,11.32
2023-04-16T15:10:24.779Z,10.80
2023-04-16T15:12:53.188Z,12.02
2023-04-16T15:15:21.579Z,11.95
2023-04-16T15:17:51.026Z,13.43
2023-04-16T15:20:21.088Z,10.93
2023-04-16T15:22:49.448Z,12.30
2023-04-16T15:25:18.002Z,11.98
2023-04-16T15:27:46.339Z,11.95
2023-04-16T15:30:15.695Z,11.00
2023-04-16T15:32:45.061Z,11.10
2023-04-16T15:35:15.544Z,12.32
2023-04-16T15:37:45.412Z,10.35
2023-04-16T15:40:15.902Z,12.63
2023-04-16T15:42:44.646Z,11.50
2023-04-16T15:45:13.124Z,11.45
2023-04-16T15:47:42.014Z,11.43
2023-04-16T15:50:11.000Z,12.73
2023-04-16T15:52:42.490Z,18.58
2023-04-16T15:55:12.398Z,12.43
2023-04-16T15:57:41.132Z,12.35
2023-04-16T16:00:14.174Z,12.73
2023-04-16T16:02:44.116Z,11.43
2023-04-16T16:05:14.244Z,12.68
2023-04-16T16:07:43.256Z,13.05
2023-04-16T16:10:16.025Z,12.85
2023-04-16T16:12:46.444Z,13.05
2023-04-16T16:15:14.955Z,13.25
2023-04-16T16:17:43.602Z,13.05
2023-04-16T16:20:12.887Z,13.00
2023-04-16T16:22:43.124Z,12.00
2023-04-16T16:25:12.929Z,11.18
2023-04-16T16:27:42.106Z,12.15
2023-04-16T16:30:11.548Z,11.82
2023-04-16T16:32:43.026Z,11.10
2023-04-16T16:35:13.992Z,11.90
2023-04-16T16:37:42.433Z,12.80
2023-04-16T16:40:11.690Z,12.80
2023-04-16T16:42:56.276Z,12.15
2023-04-16T16:45:34.919Z,14.70
2023-04-16T16:48:04.321Z,12.48
2023-04-16T16:50:33.254Z,11.65
2023-04-16T16:53:01.950Z,11.82
2023-04-16T16:55:30.346Z,21.75
2023-04-16T16:58:00.261Z,12.52
2023-04-16T17:00:28.712Z,12.35
2023-04-16T17:02:57.621Z,11.18
2023-04-16T17:05:26.246Z,17.25
2023-04-16T17:07:54.729Z,12.30
2023-04-16T17:10:23.761Z,14.88
2023-04-16T17:12:56.724Z,12.60
2023-04-16T17:15:26.922Z,35.75
2023-04-16T17:17:55.277Z,12.98
2023-04-16T17:20:24.124Z,12.00
2023-04-16T17:22:52.694Z,12.35
2023-04-16T17:25:21.330Z,11.45
2023-04-16T17:27:51.542Z,12.20
2023-04-16T17:30:20.194Z,12.25
2023-04-16T17:32:50.681Z,10.90
2023-04-16T17:35:19.106Z,12.05
2023-04-16T17:37:47.502Z,13.00
2023-04-16T17:40:18.196Z,12.70
2023-04-16T17:42:47.152Z,12.63
2023-04-16T17:45:15.716Z,12.30
2023-04-16T17:47:44.592Z,12.95
2023-04-16T17:50:14.636Z,11.75
2023-04-16T17:52:47.330Z,11.65
2023-04-16T17:55:16.652Z,11.77
2023-04-16T17:57:45.766Z,12.32
2023-04-16T18:00:16.152Z,13.40
2023-04-16T18:02:45.479Z,12.68
2023-04-16T18:05:15.498Z,11.90
2023-04-16T18:07:48.285Z,11.82
2023-04-16T18:10:16.714Z,12.40
2023-04-16T18:12:45.114Z,12.90
2023-04-16T18:15:13.465Z,15.20
2023-04-16T18:17:44.316Z,14.52
2023-04-16T18:20:16.738Z,12.40
2023-04-16T18:22:46.556Z,11.77
2023-04-16T18:25:16.085Z,12.02
2023-04-16T18:27:44.811Z,13.77
2023-04-16T18:30:20.164Z,12.82
2023-04-16T18:33:09.957Z,12.35
2023-04-16T18:35:42.314Z,11.38
2023-04-16T18:38:14.597Z,11.38
2023-04-16T18:40:43.108Z,11.90
2023-04-16T18:43:11.506Z,12.85
2023-04-16T18:45:40.034Z,13.13
2023-04-16T18:48:08.626Z,12.25
2023-04-16T18:50:36.996Z,11.80
2023-04-16T18:53:05.360Z,12.45
2023-04-16T18:55:35.305Z,11.98
2023-04-16T18:58:07.952Z,12.02
2023-04-16T19:00:36.408Z,12.13
2023-04-16T19:03:15.133Z,14.30
2023-04-16T19:05:43.765Z,12.32
2023-04-16T19:08:12.293Z,12.25
2023-04-16T19:10:42.044Z,12.52
2023-04-16T19:13:10.540Z,12.55
2023-04-16T19:15:38.942Z,13.50
2023-04-16T19:18:10.210Z,13.50
2023-04-16T19:20:39.630Z,13.32
2023-04-16T19:23:19.552Z,13.80
2023-04-16T19:26:04.135Z,12.88
2023-04-16T19:29:38.628Z,14.07
2023-04-16T19:32:25.542Z,12.75
2023-04-16T19:34:55.241Z,13.57
2023-04-16T19:37:27.270Z,13.93
2023-04-16T19:40:47.517Z,13.82
2023-04-16T19:44:00.716Z,13.35
2023-04-16T19:46:52.278Z,12.70
2023-04-16T19:49:20.631Z,12.80
2023-04-16T19:51:49.547Z,13.65
2023-04-16T19:54:17.907Z,13.27
2023-04-16T19:56:46.238Z,13.35
2023-04-16T19:59:15.990Z,12.77
2023-04-16T20:01:44.675Z,12.45
2023-04-16T20:04:16.506Z,11.70
2023-04-16T20:06:44.851Z,13.27
2023-04-16T20:09:13.422Z,12.95
2023-04-16T20:11:41.871Z,13.23
2023-04-16T20:14:10.653Z,12.98
2023-04-16T20:16:40.919Z,11.98
2023-04-16T20:19:09.536Z,11.98
2023-04-16T20:21:37.979Z,11.93
2023-04-16T20:24:10.609Z,11.50
2023-04-16T20:26:38.986Z,12.07
2023-04-16T20:29:07.344Z,12.75
2023-04-16T20:31:38.323Z,13.13
2023-04-16T20:34:23.915Z,12.73
2023-04-16T20:36:52.693Z,11.98
2023-04-16T20:39:22.428Z,13.02
2023-04-16T20:41:57.042Z,11.93
2023-04-16T20:44:26.444Z,11.80
2023-04-16T20:46:56.988Z,11.55
2023-04-16T20:49:26.869Z,11.98
2023-04-16T20:51:55.431Z,12.13
2023-04-16T20:54:24.770Z,12.43
2023-04-16T20:56:53.266Z,11.98
2023-04-16T20:59:21.591Z,12.32
2023-04-16T21:01:50.133Z,12.10
2023-04-16T21:04:18.846Z,11.45
2023-04-16T21:06:49.152Z,11.23
2023-04-16T21:09:17.526Z,11.63
2023-04-16T21:11:46.070Z,11.77
2023-04-16T21:14:14.473Z,11.60
2023-04-16T21:16:42.815Z,12.60
2023-04-16T21:19:11.592Z,12.45
2023-04-16T21:21:41.757Z,11.25
2023-04-16T21:24:11.582Z,11.60
2023-04-16T21:26:40.114Z,12.45
2023-04-16T21:29:08.425Z,12.20
2023-04-16T21:31:36.875Z,12.55
2023-04-16T21:34:05.386Z,12.23
2023-04-16T21:36:34.106Z,13.00
2023-04-16T21:39:02.651Z,12.48
2023-04-16T21:41:32.385Z,12.00
2023-04-16T21:44:00.989Z,11.77
2023-04-16T21:46:29.358Z,13.10
2023-04-16T21:48:57.890Z,11.75
2023-04-16T21:51:29.852Z,12.52
2023-04-16T21:53:58.849Z,12.70
2023-04-16T21:56:27.319Z,11.38
2023-04-16T21:58:56.987Z,13.02
2023-04-16T22:01:25.587Z,12.63
2023-04-16T22:03:54.348Z,12.70
2023-04-16T22:06:23.265Z,13.05
2023-04-16T22:08:51.599Z,12.15
2023-04-16T22:11:20.131Z,11.32
2023-04-16T22:13:49.419Z,12.23
2023-04-16T22:16:19.245Z,12.85
2023-04-16T22:18:47.915Z,12.40
2023-04-16T22:21:16.258Z,12.48
2023-04-16T22:23:46.351Z,12.80
2023-04-16T22:26:14.856Z,12.52
2023-04-16T22:28:43.279Z,12.95
2023-04-16T22:31:11.642Z,12.15
2023-04-16T22:33:41.537Z,12.80
2023-04-16T22:36:10.351Z,12.50
2023-04-16T22:38:38.929Z,11.90
2023-04-16T22:41:07.351Z,12.32
2023-04-16T22:43:37.105Z,12.52
2023-04-16T22:46:07.938Z,12.50
2023-04-16T22:48:38.747Z,12.15
2023-04-16T22:51:09.541Z,11.82
2023-04-16T22:53:38.167Z,12.00
2023-04-16T22:56:07.217Z,12.50
2023-04-16T22:58:35.598Z,13.63
2023-04-16T23:01:03.976Z,12.63
2023-04-16T23:03:32.652Z,12.15
2023-04-16T23:06:01.057Z,12.60
2023-04-16T23:08:30.895Z,11.80
2023-04-16T23:10:59.244Z,11.55
2023-04-16T23:13:27.600Z,13.23
2023-04-16T23:15:56.038Z,13.15
2023-04-16T23:18:24.528Z,12.10
2023-04-16T23:20:53.231Z,13.13
2023-04-16T23:23:21.598Z,11.73
2023-04-16T23:25:53.191Z,11.98
2023-04-16T23:28:21.993Z,12.80
2023-04-16T23:30:52.554Z,12.57
2023-04-16T23:33:20.894Z,11.85
2023-04-16T23:35:49.281Z,12.10
2023-04-16T23:38:17.602Z,12.93
2023-04-16T23:40:45.945Z,12.07
2023-04-16T23:43:15.758Z,12.18
2023-04-16T23:45:44.179Z,11.88
2023-04-16T23:48:12.556Z,12.02
2023-04-16T23:50:41.053Z,13.05
2023-04-16T23:53:09.411Z,12.88
2023-04-16T23:55:37.884Z,13.35
2023-04-16T23:58:06.229Z,13.02
